createdAt,value
2018-01-20T00:01:01.714Z,96.76
2018-01-20T00:03:29.257Z,96.43
2018-01-20T00:05:56.798Z,96.28
2018-01-20T00:08:24.338Z,95.88
2018-01-20T00:11:03.918Z,96.17
2018-01-20T00:13:31.463Z,96.25
2018-01-20T00:15:59.044Z,96.02
2018-01-20T00:18:26.590Z,96.09
2018-01-20T00:20:54.826Z,96.92
2018-01-20T00:23:22.442Z,96.57
2018-01-20T00:25:57.349Z,95.42
2018-01-20T00:28:24.898Z,95.72
2018-01-20T00:30:52.490Z,96.07
2018-01-20T00:33:20.259Z,95.94
2018-01-20T00:35:47.802Z,96.34
2018-01-20T00:38:15.462Z,96.15
2018-01-20T00:40:43.942Z,95.19
2018-01-20T00:43:11.543Z,95.33
2018-01-20T00:45:39.089Z,94.88
2018-01-20T00:48:07.430Z,94.83
2018-01-20T00:50:34.974Z,95.18
2018-01-20T00:53:02.519Z,94.39
2018-01-20T00:55:30.073Z,94.66
2018-01-20T00:57:57.620Z,93.72
2018-01-20T01:00:26.079Z,94.60
2018-01-20T01:02:54.413Z,94.11
2018-01-20T01:05:21.993Z,94.37
2018-01-20T01:07:49.534Z,94.29
2018-01-20T01:10:18.019Z,94.39
2018-01-20T01:12:45.630Z,94.34
2018-01-20T01:15:14.026Z,93.87
2018-01-20T01:17:42.395Z,94.24
2018-01-20T01:20:09.938Z,93.62
2018-01-20T01:22:37.478Z,93.72
2018-01-20T01:25:05.019Z,93.54
2018-01-20T01:27:32.599Z,94.39
2018-01-20T01:30:00.153Z,94.16
2018-01-20T01:32:28.734Z,94.35
2018-01-20T01:34:56.335Z,94.26
2018-01-20T01:37:23.898Z,94.62
2018-01-20T01:39:51.473Z,94.33
2018-01-20T01:42:19.118Z,93.77
2018-01-20T01:44:46.659Z,93.87
2018-01-20T01:47:14.209Z,94.41
2018-01-20T01:49:41.802Z,94.12
2018-01-20T01:52:09.378Z,94.18
2018-01-20T01:54:36.999Z,94.71
2018-01-20T01:57:04.590Z,95.02
2018-01-20T01:59:32.151Z,94.14
2018-01-20T02:01:59.708Z,95.08
2018-01-20T02:04:27.250Z,94.84
2018-01-20T02:06:54.834Z,94.43
2018-01-20T02:09:22.373Z,94.66
2018-01-20T02:11:49.954Z,94.41
2018-01-20T02:14:17.498Z,94.96
2018-01-20T02:16:45.179Z,94.82
2018-01-20T02:19:12.870Z,94.65
2018-01-20T02:21:40.474Z,95.35
2018-01-20T02:24:08.950Z,94.59
2018-01-20T02:26:36.551Z,94.83
2018-01-20T02:29:04.878Z,95.32
2018-01-20T02:31:32.422Z,95.51
2018-01-20T02:33:59.975Z,94.86
2018-01-20T02:36:28.625Z,94.50
2018-01-20T02:38:57.293Z,94.64
2018-01-20T02:41:25.618Z,94.26
2018-01-20T02:43:53.168Z,93.90
2018-01-20T02:46:20.818Z,94.18
2018-01-20T02:48:48.357Z,94.53
2018-01-20T02:51:16.047Z,93.78
2018-01-20T02:53:43.593Z,94.21
2018-01-20T02:56:11.338Z,93.64
2018-01-20T02:58:38.883Z,94.81
2018-01-20T03:01:07.302Z,94.53
2018-01-20T03:03:34.896Z,93.83
2018-01-20T03:06:02.482Z,94.57
2018-01-20T03:08:30.059Z,94.19
2018-01-20T03:10:57.601Z,94.02
2018-01-20T03:13:25.388Z,94.13
2018-01-20T03:15:52.970Z,94.93
2018-01-20T03:18:20.516Z,95.12
2018-01-20T03:20:48.072Z,95.38
2018-01-20T03:23:15.761Z,95.30
2018-01-20T03:25:43.302Z,95.70
2018-01-20T03:28:10.849Z,95.24
2018-01-20T03:30:38.407Z,95.25
2018-01-20T03:33:06.286Z,95.27
2018-01-20T03:35:34.600Z,94.48
2018-01-20T03:38:02.179Z,95.17
2018-01-20T03:40:29.758Z,95.14
2018-01-20T03:42:57.305Z,95.73
2018-01-20T03:45:24.904Z,95.36
2018-01-20T03:47:52.470Z,94.23
2018-01-20T03:50:20.020Z,94.69
2018-01-20T03:52:47.562Z,94.33
2018-01-20T03:55:15.106Z,95.34
2018-01-20T03:57:42.709Z,94.75
2018-01-20T04:00:11.103Z,95.15
2018-01-20T04:02:38.678Z,95.52
2018-01-20T04:05:06.217Z,95.65
2018-01-20T04:07:33.809Z,95.76
2018-01-20T04:10:01.440Z,95.35
2018-01-20T04:12:29.129Z,95.33
2018-01-20T04:14:57.458Z,95.51
2018-01-20T04:17:25.774Z,94.91
2018-01-20T04:19:53.451Z,94.46
2018-01-20T04:22:20.991Z,93.62
2018-01-20T04:24:48.536Z,94.20
2018-01-20T04:27:16.077Z,94.47
2018-01-20T04:29:43.622Z,93.64
2018-01-20T04:32:11.166Z,93.57
2018-01-20T04:34:38.810Z,93.69
2018-01-20T04:37:06.369Z,94.44
2018-01-20T04:39:33.997Z,93.83
2018-01-20T04:42:01.594Z,94.62
2018-01-20T04:44:29.363Z,94.79
2018-01-20T04:46:56.906Z,94.83
2018-01-20T04:49:24.451Z,94.58
2018-01-20T04:51:52.002Z,93.33
2018-01-20T04:54:19.551Z,94.08
2018-01-20T04:56:47.091Z,93.63
2018-01-20T04:59:14.634Z,93.83
2018-01-20T05:01:42.951Z,94.20
2018-01-20T05:04:10.495Z,94.46
2018-01-20T05:06:38.942Z,93.96
2018-01-20T05:09:07.264Z,93.87
2018-01-20T05:11:35.579Z,94.40
2018-01-20T05:14:03.123Z,94.64
2018-01-20T05:16:30.670Z,93.92
2018-01-20T05:18:58.249Z,94.78
2018-01-20T05:21:25.876Z,94.23
2018-01-20T05:23:53.549Z,94.31
2018-01-20T05:26:21.089Z,94.89
2018-01-20T05:28:48.633Z,95.45
2018-01-20T05:31:16.174Z,94.49
2018-01-20T05:33:43.720Z,95.24
2018-01-20T05:36:11.262Z,94.75
2018-01-20T05:38:39.409Z,94.37
2018-01-20T05:41:06.974Z,94.71
2018-01-20T05:43:35.469Z,94.72
2018-01-20T05:46:03.903Z,94.69
2018-01-20T05:48:31.482Z,93.93
2018-01-20T05:50:59.031Z,93.76
2018-01-20T05:53:26.681Z,93.89
2018-01-20T05:55:54.257Z,93.87
2018-01-20T05:58:21.878Z,94.99
2018-01-20T06:00:49.428Z,95.68
2018-01-20T06:03:16.992Z,96.07
2018-01-20T06:05:44.539Z,94.49
2018-01-20T06:08:12.081Z,94.65
2018-01-20T06:10:39.718Z,94.13
2018-01-20T06:13:07.258Z,94.86
2018-01-20T06:15:35.325Z,94.22
2018-01-20T06:18:02.954Z,94.79
2018-01-20T06:20:30.553Z,95.01
2018-01-20T06:22:58.096Z,95.17
2018-01-20T06:25:25.650Z,95.30
2018-01-20T06:27:53.243Z,95.77
2018-01-20T06:30:20.791Z,95.47
2018-01-20T06:32:48.333Z,94.16
2018-01-20T06:35:15.881Z,93.18
2018-01-20T06:37:43.441Z,93.42
2018-01-20T06:40:11.029Z,93.73
2018-01-20T06:42:38.582Z,94.08
2018-01-20T06:45:06.176Z,94.22
2018-01-20T06:47:33.731Z,94.76
2018-01-20T06:50:01.374Z,94.68
2018-01-20T06:52:28.917Z,95.28
2018-01-20T06:54:56.461Z,95.77
2018-01-20T06:57:24.081Z,95.79
2018-01-20T06:59:52.661Z,94.75
2018-01-20T07:02:21.198Z,95.78
2018-01-20T07:04:48.741Z,94.71
2018-01-20T07:07:16.320Z,95.08
2018-01-20T07:09:43.862Z,95.46
2018-01-20T07:12:11.451Z,94.93
2018-01-20T07:14:39.326Z,94.36
2018-01-20T07:17:06.947Z,94.27
2018-01-20T07:19:34.494Z,95.09
2018-01-20T07:22:02.045Z,95.16
2018-01-20T07:24:29.586Z,95.49
2018-01-20T07:26:57.166Z,95.58
2018-01-20T07:29:24.830Z,95.56
2018-01-20T07:31:52.463Z,95.13
2018-01-20T07:34:20.235Z,96.14
2018-01-20T07:36:47.783Z,95.65
2018-01-20T07:39:15.366Z,94.12
2018-01-20T07:41:42.908Z,94.82
2018-01-20T07:44:10.454Z,94.21
2018-01-20T07:46:38.002Z,93.79
2018-01-20T07:49:05.570Z,93.75
2018-01-20T07:51:33.282Z,94.66
2018-01-20T07:54:00.927Z,94.03
2018-01-20T07:56:28.476Z,94.30
2018-01-20T07:58:56.051Z,94.81
2018-01-20T08:01:23.599Z,94.39
2018-01-20T08:03:51.193Z,95.24
2018-01-20T08:06:18.733Z,93.93
2018-01-20T08:08:46.319Z,94.07
2018-01-20T08:11:13.864Z,93.77
2018-01-20T08:13:42.354Z,92.81
2018-01-20T08:16:10.015Z,92.94
2018-01-20T08:18:38.269Z,93.28
2018-01-20T08:21:05.823Z,93.56
2018-01-20T08:23:33.429Z,94.06
2018-01-20T08:26:00.979Z,92.97
2018-01-20T08:28:28.530Z,92.42
2018-01-20T08:30:56.100Z,92.83
2018-01-20T08:33:23.643Z,93.40
2018-01-20T08:35:51.189Z,93.52
2018-01-20T08:38:18.738Z,93.04
2018-01-20T08:40:46.280Z,93.45
2018-01-20T08:43:13.838Z,93.80
2018-01-20T08:45:41.378Z,93.44
2018-01-20T08:48:08.926Z,92.68
2018-01-20T08:50:36.510Z,92.73
2018-01-20T08:53:04.142Z,91.85
2018-01-20T08:55:31.706Z,92.51
2018-01-20T08:57:59.372Z,91.39
2018-01-20T09:00:26.918Z,92.43
2018-01-20T09:02:54.458Z,91.95
2018-01-20T09:05:22.006Z,89.91
2018-01-20T09:07:49.953Z,89.12
2018-01-20T09:10:17.603Z,90.20
2018-01-20T09:12:45.154Z,90.75
2018-01-20T09:15:12.753Z,91.17
2018-01-20T09:17:40.289Z,91.17
2018-01-20T09:20:07.891Z,91.10
2018-01-20T09:22:35.498Z,91.35
2018-01-20T09:25:03.269Z,91.34
2018-01-20T09:27:30.819Z,90.39
2018-01-20T09:29:58.482Z,91.73
2018-01-20T09:32:26.036Z,89.91
2018-01-20T09:34:54.381Z,90.32
2018-01-20T09:37:22.530Z,91.21
2018-01-20T09:39:50.081Z,89.17
2018-01-20T09:42:17.658Z,87.64
2018-01-20T09:44:45.288Z,89.19
2018-01-20T09:47:12.870Z,88.24
2018-01-20T09:49:41.313Z,87.33
2018-01-20T09:52:09.546Z,87.97
2018-01-20T09:54:38.004Z,87.51
2018-01-20T09:57:06.473Z,88.05
2018-01-20T09:59:34.905Z,86.00
2018-01-20T10:02:02.468Z,87.10
2018-01-20T10:04:30.058Z,86.56
2018-01-20T10:06:57.598Z,86.19
2018-01-20T10:09:26.099Z,85.37
2018-01-20T10:11:53.662Z,84.32
2018-01-20T10:14:21.338Z,85.71
2018-01-20T10:16:48.989Z,85.22
2018-01-20T10:19:16.624Z,85.62
2018-01-20T10:21:44.181Z,85.02
2018-01-20T10:24:11.778Z,84.71
2018-01-20T10:26:39.371Z,84.78
2018-01-20T10:29:06.991Z,84.73
2018-01-20T10:31:34.532Z,84.16
2018-01-20T10:34:02.371Z,84.38
2018-01-20T10:36:29.994Z,84.56
2018-01-20T10:38:57.573Z,85.01
2018-01-20T10:41:25.129Z,84.27
2018-01-20T10:43:52.709Z,84.27
2018-01-20T10:46:20.254Z,85.63
2018-01-20T10:48:47.834Z,86.15
2018-01-20T10:51:15.453Z,86.40
2018-01-20T10:53:43.283Z,86.05
2018-01-20T10:56:10.860Z,86.44
2018-01-20T10:58:39.390Z,86.57
2018-01-20T11:01:06.961Z,86.37
2018-01-20T11:03:34.578Z,86.35
2018-01-20T11:06:02.350Z,87.32
2018-01-20T11:08:30.798Z,86.29
2018-01-20T11:10:58.438Z,84.78
2018-01-20T11:13:26.029Z,84.62
2018-01-20T11:15:53.579Z,86.54
2018-01-20T11:18:21.136Z,87.71
2018-01-20T11:20:48.735Z,85.36
2018-01-20T11:23:16.397Z,85.38
2018-01-20T11:25:43.938Z,84.57
2018-01-20T11:28:11.528Z,85.65
2018-01-20T11:30:39.295Z,85.21
2018-01-20T11:33:06.883Z,85.60
2018-01-20T11:35:34.514Z,86.63
2018-01-20T11:38:02.049Z,84.61
2018-01-20T11:40:29.589Z,85.16
2018-01-20T11:42:57.130Z,86.50
2018-01-20T11:45:24.684Z,87.52
2018-01-20T11:47:52.463Z,89.06
2018-01-20T11:50:20.078Z,88.89
2018-01-20T11:52:47.624Z,88.78
2018-01-20T11:55:16.011Z,89.52
2018-01-20T11:57:43.552Z,88.68
2018-01-20T12:00:12.002Z,88.46
2018-01-20T12:02:40.247Z,89.03
2018-01-20T12:05:07.790Z,88.52
2018-01-20T12:07:35.357Z,90.12
2018-01-20T12:10:02.904Z,89.34
2018-01-20T12:12:30.448Z,87.91
2018-01-20T12:14:57.983Z,88.36
2018-01-20T12:17:25.593Z,90.32
2018-01-20T12:19:53.190Z,88.99
2018-01-20T12:22:20.749Z,87.33
2018-01-20T12:24:48.291Z,87.56
2018-01-20T12:27:16.053Z,84.80
2018-01-20T12:29:44.397Z,85.72
2018-01-20T12:32:11.957Z,85.74
2018-01-20T12:34:39.504Z,84.54
2018-01-20T12:37:07.077Z,84.94
2018-01-20T12:39:34.623Z,85.69
2018-01-20T12:42:02.173Z,85.97
2018-01-20T12:44:29.753Z,86.00
2018-01-20T12:46:57.433Z,83.98
2018-01-20T12:49:24.991Z,85.99
2018-01-20T12:51:53.394Z,83.76
2018-01-20T12:54:21.744Z,86.76
2018-01-20T12:56:50.661Z,86.33
2018-01-20T12:59:19.258Z,86.46
2018-01-20T13:01:48.090Z,87.43
2018-01-20T13:04:15.703Z,85.75
2018-01-20T13:06:43.241Z,87.67
2018-01-20T13:09:10.890Z,87.65
2018-01-20T13:11:40.027Z,84.92
2018-01-20T13:14:08.629Z,85.14
2018-01-20T13:16:43.799Z,85.02
2018-01-20T13:19:17.878Z,82.74
2018-01-20T13:21:48.390Z,82.83
2018-01-20T13:24:22.403Z,83.36
2018-01-20T13:26:54.769Z,83.49
2018-01-20T13:32:14.870Z,85.74
2018-01-20T13:35:07.468Z,84.66
2018-01-20T13:40:47.453Z,86.21
2018-01-20T13:43:17.908Z,87.47
2018-01-20T13:49:05.399Z,87.00
2018-01-20T13:51:35.929Z,86.60
2018-01-20T13:54:05.225Z,86.74
2018-01-20T13:56:34.007Z,87.55
2018-01-20T13:59:03.914Z,87.45
2018-01-20T14:01:33.285Z,87.22
2018-01-20T14:04:03.042Z,87.13
2018-01-20T14:06:31.828Z,86.07
2018-01-20T14:09:00.732Z,87.57
2018-01-20T14:11:28.994Z,87.83
2018-01-20T14:14:06.628Z,88.00
2018-01-20T14:16:45.358Z,86.72
2018-01-20T14:19:13.609Z,86.34
2018-01-20T14:24:38.543Z,87.04
2018-01-20T14:27:12.629Z,87.20
2018-01-20T14:29:45.918Z,87.31
2018-01-20T14:32:15.513Z,88.17
2018-01-20T14:34:51.537Z,88.34
2018-01-20T14:37:21.920Z,87.99
2018-01-20T14:39:52.188Z,88.01
2018-01-20T14:45:07.993Z,88.95
2018-01-20T14:47:46.058Z,89.36
2018-01-20T14:50:15.769Z,89.85
2018-01-20T14:52:45.648Z,89.85
2018-01-20T14:55:21.233Z,88.58
2018-01-20T14:58:04.777Z,88.83
2018-01-20T15:00:39.099Z,90.08
2018-01-20T15:03:17.432Z,90.41
2018-01-20T15:05:50.709Z,89.36
2018-01-20T15:08:19.846Z,88.65
2018-01-20T15:10:47.389Z,90.37
2018-01-20T15:13:15.022Z,89.78
2018-01-20T15:15:42.687Z,89.99
2018-01-20T15:18:10.430Z,89.21
2018-01-20T15:20:38.017Z,89.73
2018-01-20T15:23:05.566Z,90.74
2018-01-20T15:25:33.175Z,89.40
2018-01-20T15:28:00.722Z,90.53
2018-01-20T15:30:28.273Z,90.85
2018-01-20T15:32:55.869Z,90.76
2018-01-20T15:35:23.478Z,91.03
2018-01-20T15:37:51.022Z,91.19
2018-01-20T15:40:18.605Z,91.56
2018-01-20T15:42:46.902Z,91.30
2018-01-20T15:45:15.330Z,91.77
2018-01-20T15:47:42.897Z,90.50
2018-01-20T15:50:10.564Z,90.33
2018-01-20T15:52:38.115Z,91.18
2018-01-20T15:55:05.707Z,91.83
2018-01-20T15:57:33.258Z,92.51
2018-01-20T16:00:00.800Z,92.60
2018-01-20T16:02:28.350Z,92.47
2018-01-20T16:04:55.946Z,91.94
2018-01-20T16:07:23.486Z,92.42
2018-01-20T16:09:51.030Z,92.36
2018-01-20T16:12:18.574Z,91.97
2018-01-20T16:14:46.190Z,91.97
2018-01-20T16:17:14.610Z,91.93
2018-01-20T16:19:43.763Z,92.44
2018-01-20T16:22:15.268Z,91.19
2018-01-20T16:24:43.877Z,92.17
2018-01-20T16:27:11.574Z,91.42
2018-01-20T16:29:39.745Z,92.27
2018-01-20T16:32:07.841Z,92.84
2018-01-20T16:34:35.459Z,92.08
2018-01-20T16:37:03.005Z,91.58
2018-01-20T16:39:31.398Z,92.04
2018-01-20T16:41:58.942Z,92.68
2018-01-20T16:44:26.511Z,92.80
2018-01-20T16:46:54.899Z,93.11
2018-01-20T16:49:22.437Z,93.51
2018-01-20T16:51:50.015Z,93.46
2018-01-20T16:54:17.556Z,93.63
2018-01-20T16:56:45.264Z,93.76
2018-01-20T16:59:12.945Z,94.00
2018-01-20T17:01:40.526Z,94.02
2018-01-20T17:04:08.127Z,93.92
2018-01-20T17:06:35.674Z,94.27
2018-01-20T17:09:03.214Z,95.08
2018-01-20T17:11:30.762Z,95.08
2018-01-20T17:13:58.360Z,94.86
2018-01-20T17:16:26.063Z,94.30
2018-01-20T17:18:53.639Z,93.88
2018-01-20T17:21:21.178Z,93.46
2018-01-20T17:23:49.467Z,93.61
2018-01-20T17:26:17.941Z,93.41
2018-01-20T17:28:46.267Z,92.34
2018-01-20T17:31:13.896Z,92.58
2018-01-20T17:33:41.433Z,92.35
2018-01-20T17:36:09.202Z,93.07
2018-01-20T17:38:36.786Z,92.43
2018-01-20T17:41:04.342Z,93.17
2018-01-20T17:43:31.913Z,93.35
2018-01-20T17:45:59.459Z,93.19
2018-01-20T17:48:27.054Z,92.32
2018-01-20T17:50:54.598Z,92.06
2018-01-20T17:53:22.364Z,92.66
2018-01-20T17:55:49.910Z,93.43
2018-01-20T17:58:18.222Z,93.38
2018-01-20T18:00:45.802Z,93.27
2018-01-20T18:03:13.345Z,93.85
2018-01-20T18:05:40.959Z,94.07
2018-01-20T18:08:08.585Z,94.29
2018-01-20T18:10:36.380Z,94.24
2018-01-20T18:13:03.926Z,94.28
2018-01-20T18:15:31.505Z,94.45
2018-01-20T18:17:59.046Z,95.00
2018-01-20T18:20:26.627Z,94.99
2018-01-20T18:22:55.076Z,95.64
2018-01-20T18:25:22.630Z,96.11
2018-01-20T18:27:50.245Z,96.38
2018-01-20T18:30:17.793Z,96.63
2018-01-20T18:32:46.243Z,96.36
2018-01-20T18:35:13.836Z,95.49
2018-01-20T18:37:41.399Z,95.69
2018-01-20T18:40:08.942Z,95.13
2018-01-20T18:42:36.514Z,96.24
2018-01-20T18:45:05.251Z,96.71
2018-01-20T18:47:32.982Z,97.35
2018-01-20T18:50:00.530Z,97.18
2018-01-20T18:52:28.076Z,97.38
2018-01-20T18:54:55.653Z,97.25
2018-01-20T18:57:23.314Z,97.13
2018-01-20T18:59:50.862Z,97.29
2018-01-20T19:02:18.406Z,97.59
2018-01-20T19:04:46.097Z,97.87
2018-01-20T19:07:13.661Z,98.15
2018-01-20T19:09:41.218Z,97.49
2018-01-20T19:12:08.774Z,97.67
2018-01-20T19:14:36.362Z,97.86
2018-01-20T19:17:03.962Z,98.06
2018-01-20T19:19:32.125Z,98.05
2018-01-20T19:21:59.669Z,98.15
2018-01-20T19:24:27.414Z,98.11
2018-01-20T19:26:54.970Z,98.48
2018-01-20T19:29:22.526Z,98.03
2018-01-20T19:31:50.084Z,97.71
2018-01-20T19:34:17.642Z,97.60
2018-01-20T19:36:45.189Z,97.95
2018-01-20T19:39:12.770Z,97.92
2018-01-20T19:41:41.411Z,97.82
2018-01-20T19:44:09.834Z,97.92
2018-01-20T19:46:38.182Z,98.07
2018-01-20T19:49:05.737Z,98.41
2018-01-20T19:51:33.298Z,98.12
2018-01-20T19:54:00.895Z,98.17
2018-01-20T19:56:28.451Z,98.35
2018-01-20T19:58:56.075Z,97.93
2018-01-20T20:01:23.635Z,97.99
2018-01-20T20:03:51.380Z,97.99
2018-01-20T20:06:18.972Z,97.85
2018-01-20T20:08:46.524Z,96.98
2018-01-20T20:11:14.074Z,97.56
2018-01-20T20:13:41.630Z,97.59
2018-01-20T20:16:09.219Z,97.65
2018-01-20T20:18:36.960Z,98.00
2018-01-20T20:21:04.521Z,98.03
2018-01-20T20:23:32.141Z,98.17
2018-01-20T20:25:59.695Z,97.98
2018-01-20T20:28:27.294Z,98.08
2018-01-20T20:30:54.845Z,98.19
2018-01-20T20:33:22.399Z,98.22
2018-01-20T20:35:49.953Z,98.63
2018-01-20T20:38:17.555Z,98.70
2018-01-20T20:40:45.310Z,98.60
2018-01-20T20:43:12.871Z,98.62
2018-01-20T20:45:40.470Z,98.65
2018-01-20T20:48:12.375Z,98.63
2018-01-20T20:56:33.048Z,98.55
2018-01-20T20:59:09.257Z,98.27
2018-01-20T21:01:43.356Z,98.07
2018-01-20T21:13:55.004Z,98.06
2018-01-20T21:16:23.240Z,98.06
2018-01-20T21:18:55.575Z,98.15
2018-01-20T21:21:32.130Z,98.48
2018-01-20T21:24:15.672Z,98.50
2018-01-20T21:26:45.433Z,98.62
2018-01-20T21:29:22.519Z,98.54
2018-01-20T21:31:52.721Z,97.79
2018-01-20T21:37:20.402Z,97.91
2018-01-20T21:39:55.933Z,98.13
2018-01-20T21:42:24.672Z,98.55
2018-01-20T21:44:57.335Z,98.76
2018-01-20T21:47:31.320Z,98.80
2018-01-20T21:49:59.650Z,98.72
2018-01-20T21:52:35.349Z,98.86
2018-01-20T22:06:37.683Z,98.90
2018-01-20T22:09:05.271Z,98.96
2018-01-20T22:11:32.966Z,98.81
2018-01-20T22:14:00.529Z,98.22
2018-01-20T22:16:28.142Z,98.65
2018-01-20T22:18:55.701Z,98.79
2018-01-20T22:21:23.353Z,98.98
2018-01-20T22:23:50.910Z,99.12
2018-01-20T22:26:18.465Z,99.09
2018-01-20T22:28:46.058Z,98.86
2018-01-20T22:31:13.679Z,98.62
2018-01-20T22:33:41.505Z,97.66
2018-01-20T22:36:09.137Z,97.07
2018-01-20T22:38:36.769Z,97.47
2018-01-20T22:41:04.319Z,96.65
2018-01-20T22:43:31.924Z,97.51
2018-01-20T22:45:59.475Z,98.33
2018-01-20T22:48:28.606Z,98.45
2018-01-20T22:50:56.199Z,98.39
2018-01-20T22:53:23.905Z,98.73
2018-01-20T22:55:51.493Z,98.95
2018-01-20T22:58:19.054Z,97.87
2018-01-20T23:00:46.685Z,98.01
2018-01-20T23:03:14.242Z,98.45
2018-01-20T23:05:41.799Z,98.33
2018-01-20T23:08:10.401Z,97.71
2018-01-20T23:10:38.236Z,96.69
2018-01-20T23:13:05.786Z,97.13
2018-01-20T23:15:33.354Z,97.29
2018-01-20T23:18:00.942Z,96.64
2018-01-20T23:20:28.494Z,96.61
2018-01-20T23:22:56.078Z,96.15
2018-01-20T23:25:23.729Z,96.67
2018-01-20T23:27:51.326Z,96.04
2018-01-20T23:30:18.915Z,95.57
2018-01-20T23:32:47.434Z,97.02
2018-01-20T23:35:14.989Z,97.75
2018-01-20T23:37:43.102Z,98.22
2018-01-20T23:40:10.653Z,98.30
2018-01-20T23:42:38.211Z,98.29
2018-01-20T23:45:05.820Z,98.55
2018-01-20T23:47:33.410Z,98.59
2018-01-20T23:50:00.961Z,98.38
2018-01-20T23:52:28.508Z,98.10
2018-01-20T23:54:56.062Z,97.98
2018-01-20T23:57:23.627Z,98.25
2018-01-20T23:59:51.173Z,98.53
